createdAt,value
2022-08-02T00:00:03.057Z,10.60
2022-08-02T00:05:27.799Z,10.70
2022-08-02T00:10:31.864Z,10.73
2022-08-02T00:15:34.855Z,11.05
2022-08-02T00:20:39.735Z,11.02
2022-08-02T00:25:54.803Z,9.20
2022-08-02T00:30:59.285Z,10.82
2022-08-02T00:36:04.509Z,10.50
2022-08-02T00:41:14.165Z,10.15
2022-08-02T00:46:20.002Z,10.23
2022-08-02T00:51:24.761Z,9.90
2022-08-02T00:56:27.960Z,10.80
2022-08-02T01:01:55.953Z,11.05
2022-08-02T01:07:12.820Z,9.90
2022-08-02T01:12:17.530Z,9.73
2022-08-02T01:17:28.115Z,9.98
2022-08-02T01:23:02.959Z,10.20
2022-08-02T01:28:28.025Z,9.35
2022-08-02T01:33:36.478Z,10.23
2022-08-02T01:38:42.857Z,9.75
2022-08-02T01:43:50.114Z,10.50
2022-08-02T01:48:55.916Z,10.18
2022-08-02T01:53:59.458Z,10.75
2022-08-02T01:59:06.320Z,11.38
2022-08-02T02:04:10.391Z,9.25
2022-08-02T02:09:15.817Z,11.05
2022-08-02T02:14:25.647Z,10.18
2022-08-02T02:19:39.064Z,11.48
2022-08-02T02:24:42.346Z,11.50
2022-08-02T02:29:51.144Z,11.85
2022-08-02T02:34:56.190Z,12.10
2022-08-02T02:40:00.277Z,10.50
2022-08-02T02:45:06.642Z,11.52
2022-08-02T02:50:11.321Z,11.80
2022-08-02T02:55:15.744Z,12.20
2022-08-02T03:00:40.797Z,12.48
2022-08-02T03:05:44.238Z,11.15
2022-08-02T03:10:48.522Z,9.48
2022-08-02T03:15:54.465Z,12.10
2022-08-02T03:21:00.948Z,12.38
2022-08-02T03:26:04.451Z,11.73
2022-08-02T03:31:09.361Z,11.50
2022-08-02T03:36:15.699Z,10.38
2022-08-02T03:41:21.251Z,10.75
2022-08-02T03:46:26.512Z,10.25
2022-08-02T03:51:29.739Z,11.07
2022-08-02T03:56:33.207Z,11.30
2022-08-02T04:01:38.311Z,11.93
2022-08-02T04:06:41.908Z,15.93
2022-08-02T04:11:45.611Z,12.40
2022-08-02T04:16:54.090Z,10.13
2022-08-02T04:22:00.346Z,10.95
2022-08-02T04:27:19.204Z,13.45
2022-08-02T04:32:25.564Z,10.85
2022-08-02T04:37:29.074Z,11.35
2022-08-02T04:42:32.322Z,14.10
2022-08-02T04:48:01.944Z,13.52
2022-08-02T04:53:00.550Z,17.08
2022-08-02T04:58:18.360Z,15.75
2022-08-02T05:03:28.806Z,15.75
2022-08-02T05:08:32.441Z,15.27
2022-08-02T05:13:35.665Z,13.95
2022-08-02T05:19:00.481Z,11.35
2022-08-02T05:24:04.846Z,11.90
2022-08-02T05:29:08.029Z,10.90
2022-08-02T05:34:13.010Z,8.55
2022-08-02T05:39:18.769Z,8.60
2022-08-02T05:44:22.602Z,8.77
2022-08-02T05:49:27.274Z,7.70
2022-08-02T05:54:40.522Z,6.95
2022-08-02T05:59:53.818Z,6.90
2022-08-02T06:05:05.092Z,7.72
2022-08-02T06:10:09.808Z,7.55
2022-08-02T06:15:14.585Z,6.57
2022-08-02T06:20:21.349Z,6.45
2022-08-02T06:25:50.261Z,5.93
2022-08-02T06:30:48.665Z,5.80
2022-08-02T06:36:02.359Z,5.68
2022-08-02T06:41:09.139Z,5.75
2022-08-02T06:46:38.045Z,6.55
2022-08-02T06:51:39.664Z,5.97
2022-08-02T06:56:42.840Z,5.00
2022-08-02T07:01:45.922Z,5.25
2022-08-02T07:06:50.704Z,5.82
2022-08-02T07:11:53.866Z,6.13
2022-08-02T07:16:56.945Z,5.20
2022-08-02T07:22:02.448Z,3.88
2022-08-02T07:27:13.786Z,4.07
2022-08-02T07:32:17.775Z,3.88
2022-08-02T07:37:52.830Z,3.72
2022-08-02T07:42:47.772Z,3.65
2022-08-02T07:47:51.558Z,3.72
2022-08-02T07:52:57.725Z,3.72
2022-08-02T07:58:01.446Z,3.40
2022-08-02T08:03:04.540Z,3.22
2022-08-02T08:08:15.249Z,3.17
2022-08-02T08:13:20.501Z,2.90
2022-08-02T08:18:23.680Z,3.05
2022-08-02T08:23:28.936Z,3.17
2022-08-02T08:28:32.196Z,2.97
2022-08-02T08:33:35.341Z,3.17
2022-08-02T08:38:40.024Z,2.85
2022-08-02T08:43:43.125Z,2.92
2022-08-02T08:48:50.246Z,3.03
2022-08-02T08:53:57.192Z,3.05
2022-08-02T08:59:00.926Z,2.88
2022-08-02T09:04:03.947Z,3.08
2022-08-02T09:09:09.023Z,2.92
2022-08-02T09:14:12.317Z,2.90
2022-08-02T09:19:20.709Z,2.55
2022-08-02T09:24:25.643Z,2.50
2022-08-02T09:29:58.901Z,2.60
2022-08-02T09:35:00.066Z,2.55
2022-08-02T09:40:07.216Z,3.00
2022-08-02T09:45:11.094Z,2.65
2022-08-02T09:50:15.185Z,2.50
2022-08-02T09:55:20.501Z,2.60
2022-08-02T10:00:43.378Z,2.42
2022-08-02T10:05:55.732Z,2.22
2022-08-02T10:11:01.890Z,2.10
2022-08-02T10:16:07.366Z,2.13
2022-08-02T10:21:16.431Z,1.90
2022-08-02T10:26:21.786Z,2.10
2022-08-02T10:31:28.107Z,2.10
2022-08-02T10:36:33.606Z,2.45
2022-08-02T10:41:46.952Z,2.00
2022-08-02T10:46:50.293Z,1.88
2022-08-02T10:52:06.292Z,2.28
2022-08-02T10:57:27.431Z,2.50
2022-08-02T11:07:47.530Z,2.25
2022-08-02T11:13:12.045Z,2.10
2022-08-02T11:18:15.125Z,2.00
2022-08-02T11:23:44.897Z,1.80
2022-08-02T11:28:51.783Z,2.20
2022-08-02T11:33:55.268Z,2.00
2022-08-02T11:39:09.902Z,1.60
2022-08-02T11:44:14.449Z,2.08
2022-08-02T11:49:18.945Z,2.00
2022-08-02T11:54:28.114Z,1.90
2022-08-02T11:59:32.907Z,1.88
2022-08-02T12:04:37.157Z,2.17
2022-08-02T12:09:41.721Z,2.03
2022-08-02T12:14:46.794Z,2.15
2022-08-02T12:19:49.783Z,2.30
2022-08-02T12:24:54.372Z,2.30
2022-08-02T12:30:07.394Z,2.15
2022-08-02T12:35:12.584Z,2.47
2022-08-02T12:40:24.989Z,1.90
2022-08-02T12:45:40.804Z,2.10
2022-08-02T12:50:45.743Z,2.05
2022-08-02T12:56:00.954Z,2.42
2022-08-02T13:01:07.762Z,2.47
2022-08-02T13:06:39.458Z,2.70
2022-08-02T13:11:33.933Z,2.30
2022-08-02T13:16:38.372Z,2.58
2022-08-02T13:22:02.065Z,2.80
2022-08-02T13:27:07.780Z,2.67
2022-08-02T13:32:14.075Z,2.50
2022-08-02T13:37:17.914Z,2.70
2022-08-02T13:42:21.473Z,3.03
2022-08-02T13:47:35.831Z,3.40
2022-08-02T13:52:39.094Z,2.85
2022-08-02T13:57:42.288Z,2.88
2022-08-02T14:02:46.851Z,2.97
2022-08-02T14:07:49.880Z,3.17
2022-08-02T14:12:56.415Z,3.20
2022-08-02T14:18:01.469Z,3.00
2022-08-02T14:23:04.486Z,2.90
2022-08-02T14:28:07.582Z,3.53
2022-08-02T14:33:12.137Z,3.13
2022-08-02T14:38:15.297Z,2.95
2022-08-02T14:43:36.957Z,3.10
2022-08-02T14:48:41.697Z,2.80
2022-08-02T14:53:49.532Z,3.45
2022-08-02T14:59:06.345Z,3.50
2022-08-02T15:04:10.872Z,3.85
2022-08-02T15:09:13.872Z,3.35
2022-08-02T15:14:20.523Z,2.95
2022-08-02T15:24:52.861Z,3.15
2022-08-02T15:30:00.731Z,3.15
2022-08-02T15:35:06.979Z,4.22
2022-08-02T15:40:11.167Z,3.45
2022-08-02T15:45:15.719Z,3.10
2022-08-02T15:50:21.258Z,3.15
2022-08-02T15:55:24.300Z,2.50
2022-08-02T16:00:30.131Z,3.45
2022-08-02T16:05:35.196Z,3.13
2022-08-02T16:10:38.403Z,3.30
2022-08-02T16:15:41.687Z,3.63
2022-08-02T16:20:46.376Z,4.05
2022-08-02T16:25:49.586Z,3.75
2022-08-02T16:31:04.975Z,3.92
2022-08-02T16:36:16.088Z,4.55
2022-08-02T16:41:23.411Z,3.67
2022-08-02T16:46:47.376Z,4.18
2022-08-02T16:51:56.032Z,3.60
2022-08-02T16:56:58.850Z,3.60
2022-08-02T17:02:15.166Z,3.97
2022-08-02T17:08:07.318Z,4.20
2022-08-02T17:12:51.400Z,3.95
2022-08-02T17:17:54.723Z,4.28
2022-08-02T17:23:00.559Z,4.15
2022-08-02T17:28:04.177Z,5.40
2022-08-02T17:33:07.269Z,8.07
2022-08-02T17:38:12.190Z,8.25
2022-08-02T17:43:21.050Z,10.77
2022-08-02T17:48:29.284Z,10.55
2022-08-02T17:53:41.190Z,12.35
2022-08-02T17:58:53.791Z,7.70
2022-08-02T18:03:57.241Z,10.10
2022-08-02T18:09:03.236Z,10.55
2022-08-02T18:14:07.100Z,12.27
2022-08-02T18:19:16.938Z,11.95
2022-08-02T18:24:24.442Z,10.02
2022-08-02T18:29:30.220Z,8.77
2022-08-02T18:34:47.587Z,8.93
2022-08-02T18:39:52.533Z,7.57
2022-08-02T18:44:55.513Z,6.95
2022-08-02T18:49:59.947Z,6.55
2022-08-02T18:55:10.345Z,6.88
2022-08-02T19:00:25.590Z,7.20
2022-08-02T19:05:52.113Z,6.20
2022-08-02T19:10:56.065Z,6.28
2022-08-02T19:15:59.584Z,6.72
2022-08-02T19:21:05.489Z,6.55
2022-08-02T19:26:10.726Z,6.28
2022-08-02T19:31:13.950Z,6.68
2022-08-02T19:36:18.380Z,7.10
2022-08-02T19:41:23.222Z,6.25
2022-08-02T19:46:26.341Z,6.93
2022-08-02T19:51:49.491Z,7.35
2022-08-02T19:56:57.595Z,7.32
2022-08-02T20:02:01.333Z,7.57
2022-08-02T20:07:05.153Z,7.68
2022-08-02T20:12:11.439Z,7.88
2022-08-02T20:17:15.161Z,8.70
2022-08-02T20:22:18.691Z,9.18
2022-08-02T20:27:28.455Z,8.98
2022-08-02T20:32:33.287Z,9.00
2022-08-02T20:38:00.812Z,9.65
2022-08-02T20:43:01.532Z,10.65
2022-08-02T20:48:06.971Z,12.95
2022-08-02T20:53:23.281Z,13.43
2022-08-02T20:58:31.070Z,13.15
2022-08-02T21:03:40.177Z,13.93
2022-08-02T21:14:09.234Z,11.68
2022-08-02T21:19:12.608Z,12.25
2022-08-02T21:24:15.686Z,11.05
2022-08-02T21:29:20.322Z,13.00
2022-08-02T21:34:27.282Z,13.43
2022-08-02T21:39:32.542Z,12.35
2022-08-02T21:44:37.157Z,13.77
2022-08-02T21:50:13.802Z,14.60
2022-08-02T21:55:07.733Z,17.13
2022-08-02T22:00:28.355Z,18.70
2022-08-02T22:05:37.195Z,17.25
2022-08-02T22:10:58.998Z,17.83
2022-08-02T22:16:07.887Z,17.75
2022-08-02T22:21:14.149Z,17.83
2022-08-02T22:26:20.203Z,16.80
2022-08-02T22:31:41.005Z,18.63
2022-08-02T22:36:44.989Z,16.10
2022-08-02T22:42:05.470Z,18.77
2022-08-02T22:52:20.228Z,17.48
2022-08-02T22:57:30.538Z,17.10
2022-08-02T22:59:12.562Z,10.73
2022-08-02T23:02:36.038Z,18.02
2022-08-02T23:07:41.312Z,17.17
2022-08-02T23:12:44.647Z,17.05
2022-08-02T23:18:07.664Z,18.35
2022-08-02T23:23:11.651Z,18.45
2022-08-02T23:28:14.832Z,17.10
2022-08-02T23:33:19.190Z,17.52
2022-08-02T23:38:22.161Z,19.45
2022-08-02T23:43:25.230Z,18.45
2022-08-02T23:48:30.398Z,20.20
2022-08-02T23:53:33.461Z,19.27
2022-08-02T23:58:36.594Z,19.90
